sensor_id;sensor_type;location;lat;lon;timestamp;P1;durP1;ratioP1;P2;durP2;ratioP2
3197;SDS011;1611;49.394;11.136;2022-11-20T00:00:14;34.75;;;21.13;;
3197;SDS011;1611;49.394;11.136;2022-11-20T00:02:41;33.58;;;20.00;;
3197;SDS011;1611;49.394;11.136;2022-11-20T00:05:08;32.25;;;20.30;;
3197;SDS011;1611;49.394;11.136;2022-11-20T00:07:35;30.90;;;18.77;;
3197;SDS011;1611;49.394;11.136;2022-11-20T00:10:03;32.60;;;19.52;;
3197;SDS011;1611;49.394;11.136;2022-11-20T00:12:31;36.35;;;20.08;;
3197;SDS011;1611;49.394;11.136;2022-11-20T00:14:58;31.60;;;19.20;;
3197;SDS011;1611;49.394;11.136;2022-11-20T00:17:24;36.00;;;20.08;;
3197;SDS011;1611;49.394;11.136;2022-11-20T00:19:51;36.40;;;20.08;;
3197;SDS011;1611;49.394;11.136;2022-11-20T00:22:18;35.88;;;19.20;;
3197;SDS011;1611;49.394;11.136;2022-11-20T00:24:45;36.80;;;20.05;;
3197;SDS011;1611;49.394;11.136;2022-11-20T00:27:13;39.10;;;20.10;;
3197;SDS011;1611;49.394;11.136;2022-11-20T00:29:40;34.20;;;20.20;;
3197;SDS011;1611;49.394;11.136;2022-11-20T00:32:06;39.50;;;20.92;;
3197;SDS011;1611;49.394;11.136;2022-11-20T00:34:33;38.30;;;21.55;;
3197;SDS011;1611;49.394;11.136;2022-11-20T00:37:00;38.95;;;20.85;;
3197;SDS011;1611;49.394;11.136;2022-11-20T00:39:27;38.45;;;20.42;;
3197;SDS011;1611;49.394;11.136;2022-11-20T00:41:53;41.25;;;22.70;;
3197;SDS011;1611;49.394;11.136;2022-11-20T00:44:21;36.50;;;20.60;;
3197;SDS011;1611;49.394;11.136;2022-11-20T00:46:48;35.95;;;19.70;;
3197;SDS011;1611;49.394;11.136;2022-11-20T00:49:15;37.08;;;20.70;;
3197;SDS011;1611;49.394;11.136;2022-11-20T00:51:42;39.20;;;21.27;;
3197;SDS011;1611;49.394;11.136;2022-11-20T00:54:08;33.17;;;19.13;;
3197;SDS011;1611;49.394;11.136;2022-11-20T00:56:35;32.33;;;19.40;;
3197;SDS011;1611;49.394;11.136;2022-11-20T00:59:02;34.85;;;19.58;;
3197;SDS011;1611;49.394;11.136;2022-11-20T01:01:30;36.15;;;21.63;;
3197;SDS011;1611;49.394;11.136;2022-11-20T01:03:58;33.60;;;19.98;;
3197;SDS011;1611;49.394;11.136;2022-11-20T01:06:27;33.90;;;19.30;;
3197;SDS011;1611;49.394;11.136;2022-11-20T01:08:55;37.15;;;21.25;;
3197;SDS011;1611;49.394;11.136;2022-11-20T01:11:24;35.38;;;20.15;;
3197;SDS011;1611;49.394;11.136;2022-11-20T01:13:53;40.33;;;20.70;;
3197;SDS011;1611;49.394;11.136;2022-11-20T01:16:22;37.53;;;19.80;;
3197;SDS011;1611;49.394;11.136;2022-11-20T01:18:52;37.10;;;19.77;;
3197;SDS011;1611;49.394;11.136;2022-11-20T01:21:22;39.30;;;20.20;;
3197;SDS011;1611;49.394;11.136;2022-11-20T01:23:50;39.47;;;19.48;;
3197;SDS011;1611;49.394;11.136;2022-11-20T01:26:18;41.13;;;22.13;;
3197;SDS011;1611;49.394;11.136;2022-11-20T01:28:46;36.80;;;21.13;;
3197;SDS011;1611;49.394;11.136;2022-11-20T01:31:15;37.63;;;21.50;;
3197;SDS011;1611;49.394;11.136;2022-11-20T01:33:43;42.42;;;22.80;;
3197;SDS011;1611;49.394;11.136;2022-11-20T01:36:12;49.78;;;22.15;;
3197;SDS011;1611;49.394;11.136;2022-11-20T01:38:40;37.70;;;20.77;;
3197;SDS011;1611;49.394;11.136;2022-11-20T01:41:08;36.35;;;21.42;;
3197;SDS011;1611;49.394;11.136;2022-11-20T01:43:35;33.45;;;19.42;;
3197;SDS011;1611;49.394;11.136;2022-11-20T01:48:48;38.08;;;21.35;;
3197;SDS011;1611;49.394;11.136;2022-11-20T01:51:24;38.33;;;20.83;;
3197;SDS011;1611;49.394;11.136;2022-11-20T01:53:53;39.20;;;22.95;;
3197;SDS011;1611;49.394;11.136;2022-11-20T01:56:23;41.63;;;23.30;;
3197;SDS011;1611;49.394;11.136;2022-11-20T01:58:54;38.15;;;21.25;;
3197;SDS011;1611;49.394;11.136;2022-11-20T02:01:23;39.33;;;22.13;;
3197;SDS011;1611;49.394;11.136;2022-11-20T02:03:50;39.38;;;21.42;;
3197;SDS011;1611;49.394;11.136;2022-11-20T02:06:18;39.45;;;21.75;;
3197;SDS011;1611;49.394;11.136;2022-11-20T02:08:50;36.70;;;20.75;;
3197;SDS011;1611;49.394;11.136;2022-11-20T02:11:18;43.20;;;22.73;;
3197;SDS011;1611;49.394;11.136;2022-11-20T02:13:45;40.15;;;22.00;;
3197;SDS011;1611;49.394;11.136;2022-11-20T02:16:12;37.35;;;20.55;;
3197;SDS011;1611;49.394;11.136;2022-11-20T02:18:42;45.35;;;24.08;;
3197;SDS011;1611;49.394;11.136;2022-11-20T02:21:13;38.63;;;22.38;;
3197;SDS011;1611;49.394;11.136;2022-11-20T02:24:01;35.00;;;19.65;;
3197;SDS011;1611;49.394;11.136;2022-11-20T02:26:31;40.80;;;22.42;;
3197;SDS011;1611;49.394;11.136;2022-11-20T02:29:01;44.22;;;21.65;;
3197;SDS011;1611;49.394;11.136;2022-11-20T02:31:28;38.25;;;22.55;;
3197;SDS011;1611;49.394;11.136;2022-11-20T02:34:00;33.00;;;20.08;;
3197;SDS011;1611;49.394;11.136;2022-11-20T02:36:27;38.47;;;21.38;;
3197;SDS011;1611;49.394;11.136;2022-11-20T02:38:56;43.33;;;22.60;;
3197;SDS011;1611;49.394;11.136;2022-11-20T02:41:31;40.13;;;20.77;;
3197;SDS011;1611;49.394;11.136;2022-11-20T02:43:58;35.33;;;20.00;;
3197;SDS011;1611;49.394;11.136;2022-11-20T02:46:25;34.70;;;20.67;;
3197;SDS011;1611;49.394;11.136;2022-11-20T02:48:52;43.85;;;22.13;;
3197;SDS011;1611;49.394;11.136;2022-11-20T02:51:19;37.15;;;21.05;;
3197;SDS011;1611;49.394;11.136;2022-11-20T02:53:46;40.05;;;20.77;;
3197;SDS011;1611;49.394;11.136;2022-11-20T02:56:12;40.40;;;22.23;;
3197;SDS011;1611;49.394;11.136;2022-11-20T02:58:41;38.55;;;21.73;;
3197;SDS011;1611;49.394;11.136;2022-11-20T03:01:07;37.00;;;20.70;;
3197;SDS011;1611;49.394;11.136;2022-11-20T03:03:34;36.53;;;20.55;;
3197;SDS011;1611;49.394;11.136;2022-11-20T03:06:01;32.38;;;18.95;;
3197;SDS011;1611;49.394;11.136;2022-11-20T03:08:28;35.20;;;20.67;;
3197;SDS011;1611;49.394;11.136;2022-11-20T03:10:55;32.97;;;19.35;;
3197;SDS011;1611;49.394;11.136;2022-11-20T03:13:22;38.00;;;20.85;;
3197;SDS011;1611;49.394;11.136;2022-11-20T03:15:52;40.15;;;21.83;;
3197;SDS011;1611;49.394;11.136;2022-11-20T03:18:18;38.22;;;21.45;;
3197;SDS011;1611;49.394;11.136;2022-11-20T03:20:45;36.90;;;19.50;;
3197;SDS011;1611;49.394;11.136;2022-11-20T03:23:12;39.75;;;21.83;;
3197;SDS011;1611;49.394;11.136;2022-11-20T03:25:39;35.95;;;19.80;;
3197;SDS011;1611;49.394;11.136;2022-11-20T03:28:06;41.58;;;22.25;;
3197;SDS011;1611;49.394;11.136;2022-11-20T03:30:33;41.22;;;21.63;;
3197;SDS011;1611;49.394;11.136;2022-11-20T03:33:02;38.92;;;18.85;;
3197;SDS011;1611;49.394;11.136;2022-11-20T03:35:29;40.70;;;21.17;;
3197;SDS011;1611;49.394;11.136;2022-11-20T03:37:57;37.97;;;21.42;;
3197;SDS011;1611;49.394;11.136;2022-11-20T03:40:23;39.55;;;21.60;;
3197;SDS011;1611;49.394;11.136;2022-11-20T03:42:50;39.33;;;22.15;;
3197;SDS011;1611;49.394;11.136;2022-11-20T03:45:17;37.85;;;20.48;;
3197;SDS011;1611;49.394;11.136;2022-11-20T03:47:45;33.85;;;19.63;;
3197;SDS011;1611;49.394;11.136;2022-11-20T03:50:13;34.65;;;19.60;;
3197;SDS011;1611;49.394;11.136;2022-11-20T03:52:40;33.83;;;19.40;;
3197;SDS011;1611;49.394;11.136;2022-11-20T03:55:08;37.00;;;20.50;;
3197;SDS011;1611;49.394;11.136;2022-11-20T03:57:35;38.67;;;21.20;;
3197;SDS011;1611;49.394;11.136;2022-11-20T04:00:02;34.90;;;19.45;;
3197;SDS011;1611;49.394;11.136;2022-11-20T04:02:30;36.88;;;19.77;;
3197;SDS011;1611;49.394;11.136;2022-11-20T04:04:57;37.65;;;20.45;;
3197;SDS011;1611;49.394;11.136;2022-11-20T04:07:25;38.00;;;19.92;;
3197;SDS011;1611;49.394;11.136;2022-11-20T04:09:51;32.95;;;18.17;;
3197;SDS011;1611;49.394;11.136;2022-11-20T04:12:18;35.70;;;20.50;;
3197;SDS011;1611;49.394;11.136;2022-11-20T04:14:45;34.08;;;20.23;;
3197;SDS011;1611;49.394;11.136;2022-11-20T04:17:12;36.38;;;19.88;;
3197;SDS011;1611;49.394;11.136;2022-11-20T04:19:38;38.60;;;20.30;;
3197;SDS011;1611;49.394;11.136;2022-11-20T04:22:05;37.13;;;21.20;;
3197;SDS011;1611;49.394;11.136;2022-11-20T04:24:33;31.25;;;17.88;;
3197;SDS011;1611;49.394;11.136;2022-11-20T04:27:00;35.22;;;18.50;;
3197;SDS011;1611;49.394;11.136;2022-11-20T04:29:27;36.30;;;20.10;;
3197;SDS011;1611;49.394;11.136;2022-11-20T04:31:54;34.95;;;19.25;;
3197;SDS011;1611;49.394;11.136;2022-11-20T04:34:20;32.30;;;17.85;;
3197;SDS011;1611;49.394;11.136;2022-11-20T04:36:47;38.63;;;19.42;;
3197;SDS011;1611;49.394;11.136;2022-11-20T04:39:14;33.03;;;18.05;;
3197;SDS011;1611;49.394;11.136;2022-11-20T04:41:43;33.17;;;19.00;;
3197;SDS011;1611;49.394;11.136;2022-11-20T04:44:10;34.40;;;19.38;;
3197;SDS011;1611;49.394;11.136;2022-11-20T04:46:37;35.00;;;17.63;;
3197;SDS011;1611;49.394;11.136;2022-11-20T04:49:06;28.33;;;16.23;;
3197;SDS011;1611;49.394;11.136;2022-11-20T04:51:33;32.10;;;17.85;;
3197;SDS011;1611;49.394;11.136;2022-11-20T04:54:00;31.60;;;17.05;;
3197;SDS011;1611;49.394;11.136;2022-11-20T04:56:27;31.83;;;17.23;;
3197;SDS011;1611;49.394;11.136;2022-11-20T04:58:55;33.55;;;17.38;;
3197;SDS011;1611;49.394;11.136;2022-11-20T05:01:25;32.03;;;16.50;;
3197;SDS011;1611;49.394;11.136;2022-11-20T05:03:52;32.15;;;16.60;;
3197;SDS011;1611;49.394;11.136;2022-11-20T05:06:19;31.27;;;17.98;;
3197;SDS011;1611;49.394;11.136;2022-11-20T05:08:47;35.08;;;18.50;;
3197;SDS011;1611;49.394;11.136;2022-11-20T05:11:14;30.25;;;16.88;;
3197;SDS011;1611;49.394;11.136;2022-11-20T05:13:42;27.55;;;16.40;;
3197;SDS011;1611;49.394;11.136;2022-11-20T05:16:11;29.65;;;16.08;;
3197;SDS011;1611;49.394;11.136;2022-11-20T05:18:40;32.33;;;16.35;;
3197;SDS011;1611;49.394;11.136;2022-11-20T05:21:08;28.48;;;15.80;;
3197;SDS011;1611;49.394;11.136;2022-11-20T05:23:35;28.58;;;16.48;;
3197;SDS011;1611;49.394;11.136;2022-11-20T05:26:03;29.65;;;15.65;;
3197;SDS011;1611;49.394;11.136;2022-11-20T05:28:30;26.85;;;15.48;;
3197;SDS011;1611;49.394;11.136;2022-11-20T05:31:03;27.60;;;16.35;;
3197;SDS011;1611;49.394;11.136;2022-11-20T05:33:32;24.50;;;14.63;;
3197;SDS011;1611;49.394;11.136;2022-11-20T05:36:00;32.65;;;17.10;;
3197;SDS011;1611;49.394;11.136;2022-11-20T05:38:27;27.15;;;15.02;;
3197;SDS011;1611;49.394;11.136;2022-11-20T05:40:53;25.45;;;15.07;;
3197;SDS011;1611;49.394;11.136;2022-11-20T05:43:20;28.70;;;15.85;;
3197;SDS011;1611;49.394;11.136;2022-11-20T05:45:51;25.05;;;14.27;;
3197;SDS011;1611;49.394;11.136;2022-11-20T05:48:19;26.33;;;14.23;;
3197;SDS011;1611;49.394;11.136;2022-11-20T05:50:47;25.13;;;14.10;;
3197;SDS011;1611;49.394;11.136;2022-11-20T05:53:14;24.42;;;14.00;;
3197;SDS011;1611;49.394;11.136;2022-11-20T05:55:40;25.33;;;13.70;;
3197;SDS011;1611;49.394;11.136;2022-11-20T05:58:07;24.50;;;13.52;;
3197;SDS011;1611;49.394;11.136;2022-11-20T06:00:34;25.50;;;13.73;;
3197;SDS011;1611;49.394;11.136;2022-11-20T06:03:01;23.02;;;13.05;;
3197;SDS011;1611;49.394;11.136;2022-11-20T06:05:27;22.73;;;12.77;;
3197;SDS011;1611;49.394;11.136;2022-11-20T06:07:56;23.67;;;12.90;;
3197;SDS011;1611;49.394;11.136;2022-11-20T06:10:22;25.67;;;14.20;;
3197;SDS011;1611;49.394;11.136;2022-11-20T06:12:49;21.45;;;11.65;;
3197;SDS011;1611;49.394;11.136;2022-11-20T06:15:16;21.10;;;13.13;;
3197;SDS011;1611;49.394;11.136;2022-11-20T06:17:43;25.52;;;14.52;;
3197;SDS011;1611;49.394;11.136;2022-11-20T06:20:10;20.83;;;11.68;;
3197;SDS011;1611;49.394;11.136;2022-11-20T06:22:37;21.52;;;12.20;;
3197;SDS011;1611;49.394;11.136;2022-11-20T06:25:05;24.10;;;13.00;;
3197;SDS011;1611;49.394;11.136;2022-11-20T06:27:32;22.25;;;12.35;;
3197;SDS011;1611;49.394;11.136;2022-11-20T06:29:59;21.70;;;13.02;;
3197;SDS011;1611;49.394;11.136;2022-11-20T06:32:26;22.45;;;13.30;;
3197;SDS011;1611;49.394;11.136;2022-11-20T06:34:52;19.48;;;11.88;;
3197;SDS011;1611;49.394;11.136;2022-11-20T06:37:19;20.30;;;12.80;;
3197;SDS011;1611;49.394;11.136;2022-11-20T06:39:46;25.30;;;13.48;;
3197;SDS011;1611;49.394;11.136;2022-11-20T06:42:14;22.95;;;12.43;;
3197;SDS011;1611;49.394;11.136;2022-11-20T06:44:41;20.08;;;12.90;;
3197;SDS011;1611;49.394;11.136;2022-11-20T06:47:07;21.95;;;12.43;;
3197;SDS011;1611;49.394;11.136;2022-11-20T06:49:34;26.17;;;13.85;;
3197;SDS011;1611;49.394;11.136;2022-11-20T06:52:03;19.58;;;12.15;;
3197;SDS011;1611;49.394;11.136;2022-11-20T06:54:30;25.80;;;13.40;;
3197;SDS011;1611;49.394;11.136;2022-11-20T06:56:57;24.35;;;12.02;;
3197;SDS011;1611;49.394;11.136;2022-11-20T06:59:25;29.00;;;16.00;;
3197;SDS011;1611;49.394;11.136;2022-11-20T07:01:51;30.42;;;17.25;;
3197;SDS011;1611;49.394;11.136;2022-11-20T07:04:18;23.88;;;13.10;;
3197;SDS011;1611;49.394;11.136;2022-11-20T07:06:45;22.10;;;14.05;;
3197;SDS011;1611;49.394;11.136;2022-11-20T07:09:12;24.55;;;14.25;;
3197;SDS011;1611;49.394;11.136;2022-11-20T07:11:38;24.00;;;13.82;;
3197;SDS011;1611;49.394;11.136;2022-11-20T07:14:05;26.70;;;15.82;;
3197;SDS011;1611;49.394;11.136;2022-11-20T07:16:33;24.55;;;14.27;;
3197;SDS011;1611;49.394;11.136;2022-11-20T07:19:00;26.15;;;14.70;;
3197;SDS011;1611;49.394;11.136;2022-11-20T07:21:27;25.38;;;15.55;;
3197;SDS011;1611;49.394;11.136;2022-11-20T07:23:54;27.05;;;13.63;;
3197;SDS011;1611;49.394;11.136;2022-11-20T07:26:20;20.92;;;13.45;;
3197;SDS011;1611;49.394;11.136;2022-11-20T07:28:47;22.50;;;12.38;;
3197;SDS011;1611;49.394;11.136;2022-11-20T07:31:14;30.15;;;14.45;;
3197;SDS011;1611;49.394;11.136;2022-11-20T07:33:42;18.40;;;11.82;;
3197;SDS011;1611;49.394;11.136;2022-11-20T07:36:09;23.05;;;12.68;;
3197;SDS011;1611;49.394;11.136;2022-11-20T07:38:36;22.00;;;12.73;;
3197;SDS011;1611;49.394;11.136;2022-11-20T07:41:04;17.70;;;10.85;;
3197;SDS011;1611;49.394;11.136;2022-11-20T07:43:30;19.10;;;11.82;;
3197;SDS011;1611;49.394;11.136;2022-11-20T07:45:57;21.00;;;12.60;;
3197;SDS011;1611;49.394;11.136;2022-11-20T07:48:25;16.90;;;11.23;;
3197;SDS011;1611;49.394;11.136;2022-11-20T07:50:54;23.33;;;10.43;;
3197;SDS011;1611;49.394;11.136;2022-11-20T07:53:21;17.48;;;10.85;;
3197;SDS011;1611;49.394;11.136;2022-11-20T07:55:48;18.50;;;11.80;;
3197;SDS011;1611;49.394;11.136;2022-11-20T07:58:17;16.95;;;10.77;;
3197;SDS011;1611;49.394;11.136;2022-11-20T08:00:44;19.83;;;12.27;;
3197;SDS011;1611;49.394;11.136;2022-11-20T08:03:10;17.92;;;10.45;;
3197;SDS011;1611;49.394;11.136;2022-11-20T08:05:37;17.15;;;10.57;;
3197;SDS011;1611;49.394;11.136;2022-11-20T08:08:05;15.10;;;9.88;;
3197;SDS011;1611;49.394;11.136;2022-11-20T08:10:33;19.52;;;10.00;;
3197;SDS011;1611;49.394;11.136;2022-11-20T08:12:59;14.25;;;9.52;;
3197;SDS011;1611;49.394;11.136;2022-11-20T08:15:47;18.83;;;10.15;;
3197;SDS011;1611;49.394;11.136;2022-11-20T08:18:15;15.55;;;9.93;;
3197;SDS011;1611;49.394;11.136;2022-11-20T08:20:42;18.67;;;10.10;;
3197;SDS011;1611;49.394;11.136;2022-11-20T08:23:10;21.23;;;11.13;;
3197;SDS011;1611;49.394;11.136;2022-11-20T08:25:38;18.00;;;10.40;;
3197;SDS011;1611;49.394;11.136;2022-11-20T08:28:06;16.75;;;9.90;;
3197;SDS011;1611;49.394;11.136;2022-11-20T08:30:35;14.15;;;9.95;;
3197;SDS011;1611;49.394;11.136;2022-11-20T08:33:02;18.13;;;11.02;;
3197;SDS011;1611;49.394;11.136;2022-11-20T08:35:32;13.65;;;9.02;;
3197;SDS011;1611;49.394;11.136;2022-11-20T08:38:00;18.02;;;10.63;;
3197;SDS011;1611;49.394;11.136;2022-11-20T08:40:28;18.30;;;10.70;;
3197;SDS011;1611;49.394;11.136;2022-11-20T08:42:56;16.95;;;10.65;;
3197;SDS011;1611;49.394;11.136;2022-11-20T08:45:22;14.10;;;9.50;;
3197;SDS011;1611;49.394;11.136;2022-11-20T08:47:49;14.88;;;10.18;;
3197;SDS011;1611;49.394;11.136;2022-11-20T08:50:17;18.77;;;10.20;;
3197;SDS011;1611;49.394;11.136;2022-11-20T08:52:44;18.08;;;10.50;;
3197;SDS011;1611;49.394;11.136;2022-11-20T08:55:11;16.85;;;9.70;;
3197;SDS011;1611;49.394;11.136;2022-11-20T08:57:39;18.65;;;10.50;;
3197;SDS011;1611;49.394;11.136;2022-11-20T09:00:06;13.50;;;9.68;;
3197;SDS011;1611;49.394;11.136;2022-11-20T09:02:34;16.55;;;10.13;;
3197;SDS011;1611;49.394;11.136;2022-11-20T09:05:01;13.38;;;9.40;;
3197;SDS011;1611;49.394;11.136;2022-11-20T09:07:28;13.07;;;9.00;;
3197;SDS011;1611;49.394;11.136;2022-11-20T09:09:56;12.40;;;7.80;;
3197;SDS011;1611;49.394;11.136;2022-11-20T09:12:23;13.63;;;8.75;;
3197;SDS011;1611;49.394;11.136;2022-11-20T09:14:51;11.52;;;8.48;;
3197;SDS011;1611;49.394;11.136;2022-11-20T09:17:17;13.52;;;9.48;;
3197;SDS011;1611;49.394;11.136;2022-11-20T09:19:45;12.15;;;7.97;;
3197;SDS011;1611;49.394;11.136;2022-11-20T09:22:12;12.65;;;8.00;;
3197;SDS011;1611;49.394;11.136;2022-11-20T09:24:39;12.80;;;8.77;;
3197;SDS011;1611;49.394;11.136;2022-11-20T09:27:05;15.27;;;9.02;;
3197;SDS011;1611;49.394;11.136;2022-11-20T09:29:32;17.42;;;9.45;;
3197;SDS011;1611;49.394;11.136;2022-11-20T09:32:00;13.98;;;9.00;;
3197;SDS011;1611;49.394;11.136;2022-11-20T09:34:27;13.60;;;8.55;;
3197;SDS011;1611;49.394;11.136;2022-11-20T09:36:54;16.27;;;9.95;;
3197;SDS011;1611;49.394;11.136;2022-11-20T09:39:21;17.83;;;9.52;;
3197;SDS011;1611;49.394;11.136;2022-11-20T09:41:52;12.85;;;8.90;;
3197;SDS011;1611;49.394;11.136;2022-11-20T09:44:40;14.80;;;9.82;;
3197;SDS011;1611;49.394;11.136;2022-11-20T09:47:19;13.75;;;9.00;;
3197;SDS011;1611;49.394;11.136;2022-11-20T09:49:57;14.43;;;9.50;;
3197;SDS011;1611;49.394;11.136;2022-11-20T09:52:34;15.15;;;9.57;;
3197;SDS011;1611;49.394;11.136;2022-11-20T09:55:08;14.45;;;8.77;;
3197;SDS011;1611;49.394;11.136;2022-11-20T09:57:38;16.88;;;9.75;;
3197;SDS011;1611;49.394;11.136;2022-11-20T10:00:10;14.27;;;9.18;;
3197;SDS011;1611;49.394;11.136;2022-11-20T10:02:41;15.30;;;9.70;;
3197;SDS011;1611;49.394;11.136;2022-11-20T10:05:15;11.75;;;9.20;;
3197;SDS011;1611;49.394;11.136;2022-11-20T10:07:46;20.60;;;9.48;;
3197;SDS011;1611;49.394;11.136;2022-11-20T10:10:22;13.80;;;9.13;;
3197;SDS011;1611;49.394;11.136;2022-11-20T10:13:00;17.08;;;9.75;;
3197;SDS011;1611;49.394;11.136;2022-11-20T10:15:38;14.95;;;8.98;;
3197;SDS011;1611;49.394;11.136;2022-11-20T10:18:17;16.15;;;9.38;;
3197;SDS011;1611;49.394;11.136;2022-11-20T10:20:54;12.05;;;8.50;;
3197;SDS011;1611;49.394;11.136;2022-11-20T10:23:38;17.00;;;9.27;;
3197;SDS011;1611;49.394;11.136;2022-11-20T10:26:17;23.85;;;8.80;;
3197;SDS011;1611;49.394;11.136;2022-11-20T10:28:51;14.77;;;9.00;;
3197;SDS011;1611;49.394;11.136;2022-11-20T10:31:28;13.88;;;8.43;;
3197;SDS011;1611;49.394;11.136;2022-11-20T10:34:00;13.48;;;8.15;;
3197;SDS011;1611;49.394;11.136;2022-11-20T10:36:33;11.50;;;7.85;;
3197;SDS011;1611;49.394;11.136;2022-11-20T10:39:05;10.18;;;7.60;;
3197;SDS011;1611;49.394;11.136;2022-11-20T10:41:40;13.80;;;7.75;;
3197;SDS011;1611;49.394;11.136;2022-11-20T10:44:10;11.00;;;7.95;;
3197;SDS011;1611;49.394;11.136;2022-11-20T10:47:00;9.77;;;7.03;;
3197;SDS011;1611;49.394;11.136;2022-11-20T10:49:29;11.85;;;7.80;;
3197;SDS011;1611;49.394;11.136;2022-11-20T10:52:01;14.88;;;8.30;;
3197;SDS011;1611;49.394;11.136;2022-11-20T10:54:36;13.45;;;7.93;;
3197;SDS011;1611;49.394;11.136;2022-11-20T10:57:10;11.45;;;7.95;;
3197;SDS011;1611;49.394;11.136;2022-11-20T10:59:59;13.57;;;7.88;;
3197;SDS011;1611;49.394;11.136;2022-11-20T11:02:34;10.43;;;6.90;;
3197;SDS011;1611;49.394;11.136;2022-11-20T11:05:10;13.23;;;7.30;;
3197;SDS011;1611;49.394;11.136;2022-11-20T11:07:44;10.68;;;7.53;;
3197;SDS011;1611;49.394;11.136;2022-11-20T11:10:18;15.13;;;6.80;;
3197;SDS011;1611;49.394;11.136;2022-11-20T11:12:48;11.77;;;7.25;;
3197;SDS011;1611;49.394;11.136;2022-11-20T11:15:24;9.63;;;7.68;;
3197;SDS011;1611;49.394;11.136;2022-11-20T11:17:53;9.82;;;7.20;;
3197;SDS011;1611;49.394;11.136;2022-11-20T11:20:22;11.80;;;6.45;;
3197;SDS011;1611;49.394;11.136;2022-11-20T11:22:51;13.05;;;6.65;;
3197;SDS011;1611;49.394;11.136;2022-11-20T11:25:29;11.25;;;6.13;;
3197;SDS011;1611;49.394;11.136;2022-11-20T11:27:59;7.32;;;5.80;;
3197;SDS011;1611;49.394;11.136;2022-11-20T11:30:29;7.78;;;4.88;;
3197;SDS011;1611;49.394;11.136;2022-11-20T11:33:09;7.85;;;5.55;;
3197;SDS011;1611;49.394;11.136;2022-11-20T11:35:43;8.55;;;5.10;;
3197;SDS011;1611;49.394;11.136;2022-11-20T11:38:12;5.07;;;4.57;;
3197;SDS011;1611;49.394;11.136;2022-11-20T11:40:42;10.50;;;7.18;;
3197;SDS011;1611;49.394;11.136;2022-11-20T11:43:16;12.35;;;9.07;;
3197;SDS011;1611;49.394;11.136;2022-11-20T11:45:59;11.23;;;8.25;;
3197;SDS011;1611;49.394;11.136;2022-11-20T11:48:26;12.40;;;8.13;;
3197;SDS011;1611;49.394;11.136;2022-11-20T11:50:54;12.90;;;9.02;;
3197;SDS011;1611;49.394;11.136;2022-11-20T11:53:21;11.45;;;7.90;;
3197;SDS011;1611;49.394;11.136;2022-11-20T11:55:54;8.90;;;6.93;;
3197;SDS011;1611;49.394;11.136;2022-11-20T11:58:31;9.40;;;6.70;;
3197;SDS011;1611;49.394;11.136;2022-11-20T12:01:07;8.40;;;6.47;;
3197;SDS011;1611;49.394;11.136;2022-11-20T12:03:47;9.20;;;6.78;;
3197;SDS011;1611;49.394;11.136;2022-11-20T12:06:22;10.57;;;7.22;;
3197;SDS011;1611;49.394;11.136;2022-11-20T12:08:51;10.50;;;7.55;;
3197;SDS011;1611;49.394;11.136;2022-11-20T12:11:24;11.38;;;7.90;;
3197;SDS011;1611;49.394;11.136;2022-11-20T12:14:01;12.13;;;8.02;;
3197;SDS011;1611;49.394;11.136;2022-11-20T12:16:36;9.88;;;7.70;;
3197;SDS011;1611;49.394;11.136;2022-11-20T12:19:06;11.07;;;7.22;;
3197;SDS011;1611;49.394;11.136;2022-11-20T12:21:40;12.43;;;8.38;;
3197;SDS011;1611;49.394;11.136;2022-11-20T12:24:31;11.00;;;7.93;;
3197;SDS011;1611;49.394;11.136;2022-11-20T12:27:06;12.23;;;8.65;;
3197;SDS011;1611;49.394;11.136;2022-11-20T12:29:54;12.88;;;8.90;;
3197;SDS011;1611;49.394;11.136;2022-11-20T12:32:41;14.43;;;9.65;;
3197;SDS011;1611;49.394;11.136;2022-11-20T12:35:25;11.73;;;8.15;;
3197;SDS011;1611;49.394;11.136;2022-11-20T12:38:08;9.50;;;8.18;;
3197;SDS011;1611;49.394;11.136;2022-11-20T12:41:04;10.80;;;7.82;;
3197;SDS011;1611;49.394;11.136;2022-11-20T12:43:36;12.88;;;8.35;;
3197;SDS011;1611;49.394;11.136;2022-11-20T12:46:28;11.85;;;7.97;;
3197;SDS011;1611;49.394;11.136;2022-11-20T12:49:16;9.45;;;7.68;;
3197;SDS011;1611;49.394;11.136;2022-11-20T12:52:00;14.52;;;8.50;;
3197;SDS011;1611;49.394;11.136;2022-11-20T12:54:56;16.40;;;8.60;;
3197;SDS011;1611;49.394;11.136;2022-11-20T12:57:38;12.90;;;9.30;;
3197;SDS011;1611;49.394;11.136;2022-11-20T13:00:14;15.75;;;9.07;;
3197;SDS011;1611;49.394;11.136;2022-11-20T13:05:37;13.95;;;8.95;;
3197;SDS011;1611;49.394;11.136;2022-11-20T13:08:18;12.85;;;8.90;;
3197;SDS011;1611;49.394;11.136;2022-11-20T13:10:49;15.95;;;9.70;;
3197;SDS011;1611;49.394;11.136;2022-11-20T13:13:23;12.40;;;9.23;;
3197;SDS011;1611;49.394;11.136;2022-11-20T13:15:57;14.27;;;9.00;;
3197;SDS011;1611;49.394;11.136;2022-11-20T13:18:27;8.50;;;7.60;;
3197;SDS011;1611;49.394;11.136;2022-11-20T13:20:59;16.00;;;8.68;;
3197;SDS011;1611;49.394;11.136;2022-11-20T13:23:27;11.55;;;7.95;;
3197;SDS011;1611;49.394;11.136;2022-11-20T13:26:05;41.95;;;21.00;;
3197;SDS011;1611;49.394;11.136;2022-11-20T13:28:40;38.83;;;21.90;;
3197;SDS011;1611;49.394;11.136;2022-11-20T13:31:09;23.90;;;14.63;;
3197;SDS011;1611;49.394;11.136;2022-11-20T13:33:57;23.73;;;13.95;;
3197;SDS011;1611;49.394;11.136;2022-11-20T13:36:25;23.17;;;12.98;;
3197;SDS011;1611;49.394;11.136;2022-11-20T13:38:54;13.18;;;9.10;;
3197;SDS011;1611;49.394;11.136;2022-11-20T13:41:26;14.50;;;9.38;;
3197;SDS011;1611;49.394;11.136;2022-11-20T13:43:57;11.38;;;7.80;;
3197;SDS011;1611;49.394;11.136;2022-11-20T13:46:34;11.85;;;7.85;;
3197;SDS011;1611;49.394;11.136;2022-11-20T13:49:06;14.52;;;7.60;;
3197;SDS011;1611;49.394;11.136;2022-11-20T13:51:37;11.13;;;8.05;;
3197;SDS011;1611;49.394;11.136;2022-11-20T13:54:15;14.00;;;7.57;;
3197;SDS011;1611;49.394;11.136;2022-11-20T13:57:08;11.82;;;8.20;;
3197;SDS011;1611;49.394;11.136;2022-11-20T13:59:52;8.35;;;7.05;;
3197;SDS011;1611;49.394;11.136;2022-11-20T14:02:25;9.90;;;7.78;;
3197;SDS011;1611;49.394;11.136;2022-11-20T14:04:56;9.35;;;7.45;;
3197;SDS011;1611;49.394;11.136;2022-11-20T14:07:25;14.13;;;7.68;;
3197;SDS011;1611;49.394;11.136;2022-11-20T14:09:58;12.10;;;8.30;;
3197;SDS011;1611;49.394;11.136;2022-11-20T14:12:28;9.57;;;7.78;;
3197;SDS011;1611;49.394;11.136;2022-11-20T14:14:57;15.85;;;9.20;;
3197;SDS011;1611;49.394;11.136;2022-11-20T14:17:30;13.18;;;8.10;;
3197;SDS011;1611;49.394;11.136;2022-11-20T14:19:58;11.13;;;8.15;;
3197;SDS011;1611;49.394;11.136;2022-11-20T14:22:28;9.30;;;7.40;;
3197;SDS011;1611;49.394;11.136;2022-11-20T14:25:02;7.10;;;6.43;;
3197;SDS011;1611;49.394;11.136;2022-11-20T14:27:35;16.10;;;8.20;;
3197;SDS011;1611;49.394;11.136;2022-11-20T14:30:04;13.43;;;7.97;;
3197;SDS011;1611;49.394;11.136;2022-11-20T14:32:31;18.35;;;8.55;;
3197;SDS011;1611;49.394;11.136;2022-11-20T14:35:02;9.32;;;6.93;;
3197;SDS011;1611;49.394;11.136;2022-11-20T14:37:36;9.15;;;7.18;;
3197;SDS011;1611;49.394;11.136;2022-11-20T14:40:05;11.68;;;8.07;;
3197;SDS011;1611;49.394;11.136;2022-11-20T14:42:52;9.68;;;8.27;;
3197;SDS011;1611;49.394;11.136;2022-11-20T14:45:20;10.77;;;7.78;;
3197;SDS011;1611;49.394;11.136;2022-11-20T14:47:47;11.13;;;8.15;;
3197;SDS011;1611;49.394;11.136;2022-11-20T14:50:17;11.35;;;8.52;;
3197;SDS011;1611;49.394;11.136;2022-11-20T14:52:52;13.80;;;8.50;;
3197;SDS011;1611;49.394;11.136;2022-11-20T14:55:26;13.13;;;9.65;;
3197;SDS011;1611;49.394;11.136;2022-11-20T14:57:59;14.13;;;8.70;;
3197;SDS011;1611;49.394;11.136;2022-11-20T15:00:27;14.98;;;9.75;;
3197;SDS011;1611;49.394;11.136;2022-11-20T15:02:55;15.10;;;8.70;;